sensor_id;sensor_type;location;lat;lon;timestamp;pressure;altitude;pressure_sealevel;temperature;humidity
42587;BME280;28216;53.362;-6.288;2023-02-21T00:02:29;101635.84;;;11.34;100.00
42587;BME280;28216;53.362;-6.288;2023-02-21T00:05:19;101629.63;;;11.35;100.00
42587;BME280;28216;53.362;-6.288;2023-02-21T00:08:03;101635.03;;;11.33;100.00
42587;BME280;28216;53.362;-6.288;2023-02-21T00:10:48;101633.22;;;11.34;100.00
42587;BME280;28216;53.362;-6.288;2023-02-21T00:17:00;101634.88;;;11.35;100.00
42587;BME280;28216;53.362;-6.288;2023-02-21T00:19:44;101631.44;;;11.34;100.00
42587;BME280;28216;53.362;-6.288;2023-02-21T00:22:33;101633.91;;;11.36;100.00
42587;BME280;28216;53.362;-6.288;2023-02-21T00:25:40;101634.75;;;11.36;100.00
42587;BME280;28216;53.362;-6.288;2023-02-21T00:28:24;101630.59;;;11.34;100.00
42587;BME280;28216;53.362;-6.288;2023-02-21T00:31:08;101627.16;;;11.33;100.00
42587;BME280;28216;53.362;-6.288;2023-02-21T00:33:55;101626.31;;;11.33;100.00
42587;BME280;28216;53.362;-6.288;2023-02-21T00:36:44;101622.88;;;11.32;100.00
42587;BME280;28216;53.362;-6.288;2023-02-21T00:39:30;101626.19;;;11.34;100.00
42587;BME280;28216;53.362;-6.288;2023-02-21T00:42:22;101618.31;;;11.34;100.00
42587;BME280;28216;53.362;-6.288;2023-02-21T00:45:09;101616.66;;;11.33;100.00
42587;BME280;28216;53.362;-6.288;2023-02-21T00:47:56;101619.13;;;11.35;100.00
42587;BME280;28216;53.362;-6.288;2023-02-21T00:50:40;101621.06;;;11.33;100.00
42587;BME280;28216;53.362;-6.288;2023-02-21T00:53:30;101613.06;;;11.34;100.00
42587;BME280;28216;53.362;-6.288;2023-02-21T00:59:30;101609.47;;;11.35;100.00
42587;BME280;28216;53.362;-6.288;2023-02-21T01:02:17;101605.03;;;11.36;100.00
42587;BME280;28216;53.362;-6.288;2023-02-21T01:05:10;101605.03;;;11.36;100.00
42587;BME280;28216;53.362;-6.288;2023-02-21T01:07:57;101604.88;;;11.37;100.00
42587;BME280;28216;53.362;-6.288;2023-02-21T01:10:44;101599.63;;;11.37;100.00
42587;BME280;28216;53.362;-6.288;2023-02-21T01:13:31;101597.69;;;11.39;100.00
42587;BME280;28216;53.362;-6.288;2023-02-21T01:16:17;101584.72;;;11.38;100.00
42587;BME280;28216;53.362;-6.288;2023-02-21T01:19:11;101585.69;;;11.37;100.00
42587;BME280;28216;53.362;-6.288;2023-02-21T01:21:55;101590.94;;;11.37;100.00
42587;BME280;28216;53.362;-6.288;2023-02-21T01:24:47;101572.84;;;11.34;100.00
42587;BME280;28216;53.362;-6.288;2023-02-21T01:27:53;101586.81;;;11.34;100.00
42587;BME280;28216;53.362;-6.288;2023-02-21T01:30:40;101582.22;;;11.36;100.00
42587;BME280;28216;53.362;-6.288;2023-02-21T01:33:27;101581.53;;;11.34;100.00
42587;BME280;28216;53.362;-6.288;2023-02-21T01:36:20;101569.53;;;11.32;100.00
42587;BME280;28216;53.362;-6.288;2023-02-21T01:39:06;101569.41;;;11.33;100.00
42587;BME280;28216;53.362;-6.288;2023-02-21T01:42:08;101566.22;;;11.30;100.00
42587;BME280;28216;53.362;-6.288;2023-02-21T01:48:03;101561.13;;;11.28;100.00
42587;BME280;28216;53.362;-6.288;2023-02-21T01:50:53;101564.56;;;11.29;100.00
42587;BME280;28216;53.362;-6.288;2023-02-21T01:53:51;101565.69;;;11.26;100.00
42587;BME280;28216;53.362;-6.288;2023-02-21T01:59:43;101553.25;;;11.28;100.00
42587;BME280;28216;53.362;-6.288;2023-02-21T02:02:50;101553.09;;;11.30;100.00
42587;BME280;28216;53.362;-6.288;2023-02-21T02:05:37;101549.66;;;11.29;100.00
42587;BME280;28216;53.362;-6.288;2023-02-21T02:08:30;101553.25;;;11.28;100.00
42587;BME280;28216;53.362;-6.288;2023-02-21T02:14:39;101546.19;;;11.29;100.00
42587;BME280;28216;53.362;-6.288;2023-02-21T02:41:06;101535.47;;;11.12;100.00
42587;BME280;28216;53.362;-6.288;2023-02-21T02:44:23;101528.41;;;11.13;100.00
42587;BME280;28216;53.362;-6.288;2023-02-21T02:47:00;101524.69;;;11.16;100.00
42587;BME280;28216;53.362;-6.288;2023-02-21T02:49:28;101513.09;;;11.18;100.00
42587;BME280;28216;53.362;-6.288;2023-02-21T02:52:05;101521.66;;;11.20;100.00
42587;BME280;28216;53.362;-6.288;2023-02-21T02:54:34;101513.34;;;11.25;100.00
42587;BME280;28216;53.362;-6.288;2023-02-21T02:57:18;101516.78;;;11.25;100.00
42587;BME280;28216;53.362;-6.288;2023-02-21T02:59:57;101515.81;;;11.26;100.00
42587;BME280;28216;53.362;-6.288;2023-02-21T03:02:30;101512.22;;;11.27;100.00
42587;BME280;28216;53.362;-6.288;2023-02-21T03:05:25;101513.03;;;11.28;100.00
42587;BME280;28216;53.362;-6.288;2023-02-21T03:10:45;101512.38;;;11.26;100.00
42587;BME280;28216;53.362;-6.288;2023-02-21T03:15:54;101508.66;;;11.19;100.00
42587;BME280;28216;53.362;-6.288;2023-02-21T03:18:42;101501.63;;;11.19;100.00
42587;BME280;28216;53.362;-6.288;2023-02-21T03:21:27;101500.94;;;11.17;100.00
42587;BME280;28216;53.362;-6.288;2023-02-21T03:24:07;101491.94;;;11.20;100.00
42587;BME280;28216;53.362;-6.288;2023-02-21T03:26:36;101493.59;;;11.21;100.00
42587;BME280;28216;53.362;-6.288;2023-02-21T03:29:12;101488.19;;;11.22;100.00
42587;BME280;28216;53.362;-6.288;2023-02-21T03:31:44;101489.72;;;11.25;100.00
42587;BME280;28216;53.362;-6.288;2023-02-21T03:34:14;101487.91;;;11.25;100.00
42587;BME280;28216;53.362;-6.288;2023-02-21T03:36:47;101484.31;;;11.26;100.00
42587;BME280;28216;53.362;-6.288;2023-02-21T03:39:24;101478.22;;;11.26;100.00
42587;BME280;28216;53.362;-6.288;2023-02-21T03:41:52;101478.09;;;11.27;100.00
42587;BME280;28216;53.362;-6.288;2023-02-21T03:44:17;101478.38;;;11.24;100.00
42587;BME280;28216;53.362;-6.288;2023-02-21T03:46:45;101474.09;;;11.23;100.00
42587;BME280;28216;53.362;-6.288;2023-02-21T03:49:40;101470.78;;;11.21;100.00
42587;BME280;28216;53.362;-6.288;2023-02-21T03:52:06;101478.53;;;11.23;100.00
42587;BME280;28216;53.362;-6.288;2023-02-21T03:54:41;101475.38;;;11.19;100.00
42587;BME280;28216;53.362;-6.288;2023-02-21T03:57:07;101466.66;;;11.19;100.00
42587;BME280;28216;53.362;-6.288;2023-02-21T03:59:36;101464.88;;;11.19;100.00
42587;BME280;28216;53.362;-6.288;2023-02-21T04:02:01;101459.75;;;11.18;100.00
42587;BME280;28216;53.362;-6.288;2023-02-21T04:04:35;101457.97;;;11.18;100.00
42587;BME280;28216;53.362;-6.288;2023-02-21T04:07:23;101451.63;;;11.11;100.00
42587;BME280;28216;53.362;-6.288;2023-02-21T04:09:58;101454.81;;;11.05;100.00
42587;BME280;28216;53.362;-6.288;2023-02-21T04:12:34;101449.88;;;11.02;100.00
42587;BME280;28216;53.362;-6.288;2023-02-21T04:15:07;101446.13;;;11.04;100.00
42587;BME280;28216;53.362;-6.288;2023-02-21T04:17:37;101432.31;;;11.02;100.00
42587;BME280;28216;53.362;-6.288;2023-02-21T04:20:03;101442.00;;;11.02;100.00
42587;BME280;28216;53.362;-6.288;2023-02-21T04:22:49;101431.78;;;10.99;100.00
42587;BME280;28216;53.362;-6.288;2023-02-21T04:25:33;101429.47;;;10.96;100.00
42587;BME280;28216;53.362;-6.288;2023-02-21T04:28:03;101430.88;;;10.90;100.00
42587;BME280;28216;53.362;-6.288;2023-02-21T04:30:44;101421.63;;;10.86;100.00
42587;BME280;28216;53.362;-6.288;2023-02-21T04:33:09;101407.97;;;10.82;100.00
42587;BME280;28216;53.362;-6.288;2023-02-21T04:35:37;101404.28;;;10.75;100.00
42587;BME280;28216;53.362;-6.288;2023-02-21T04:38:03;101406.66;;;10.69;100.00
42587;BME280;28216;53.362;-6.288;2023-02-21T04:40:33;101406.25;;;10.64;100.00
42587;BME280;28216;53.362;-6.288;2023-02-21T04:43:09;101408.19;;;10.62;100.00
42587;BME280;28216;53.362;-6.288;2023-02-21T04:45:48;101406.16;;;10.56;100.00
42587;BME280;28216;53.362;-6.288;2023-02-21T04:48:13;101406.28;;;10.54;100.00
42587;BME280;28216;53.362;-6.288;2023-02-21T04:50:44;101409.19;;;10.51;100.00
42587;BME280;28216;53.362;-6.288;2023-02-21T04:53:24;101410.72;;;10.54;100.00
42587;BME280;28216;53.362;-6.288;2023-02-21T04:55:55;101409.06;;;10.53;100.00
42587;BME280;28216;53.362;-6.288;2023-02-21T04:58:23;101398.16;;;10.57;100.00
42587;BME280;28216;53.362;-6.288;2023-02-21T05:00:55;101404.22;;;10.58;100.00
42587;BME280;28216;53.362;-6.288;2023-02-21T05:03:23;101406.44;;;10.53;100.00
42587;BME280;28216;53.362;-6.288;2023-02-21T05:05:56;101403.81;;;10.53;100.00
42587;BME280;28216;53.362;-6.288;2023-02-21T05:08:24;101407.25;;;10.53;100.00
42587;BME280;28216;53.362;-6.288;2023-02-21T05:10:52;101398.19;;;10.47;100.00
42587;BME280;28216;53.362;-6.288;2023-02-21T05:13:21;101406.59;;;10.51;100.00
42587;BME280;28216;53.362;-6.288;2023-02-21T05:15:52;101402.16;;;10.52;100.00
42587;BME280;28216;53.362;-6.288;2023-02-21T05:18:34;101395.81;;;10.54;100.00
42587;BME280;28216;53.362;-6.288;2023-02-21T05:21:04;101387.25;;;10.52;100.00
42587;BME280;28216;53.362;-6.288;2023-02-21T05:23:37;101393.88;;;10.56;100.00
42587;BME280;28216;53.362;-6.288;2023-02-21T05:26:14;101392.22;;;10.55;100.00
42587;BME280;28216;53.362;-6.288;2023-02-21T05:28:49;101382.13;;;10.60;100.00
42587;BME280;28216;53.362;-6.288;2023-02-21T05:31:22;101388.47;;;10.58;100.00
42587;BME280;28216;53.362;-6.288;2023-02-21T05:33:55;101396.19;;;10.59;100.00
42587;BME280;28216;53.362;-6.288;2023-02-21T05:36:21;101386.41;;;10.61;100.00
42587;BME280;28216;53.362;-6.288;2023-02-21T05:38:55;101378.69;;;10.60;100.00
42587;BME280;28216;53.362;-6.288;2023-02-21T05:41:23;101384.75;;;10.60;100.00
42587;BME280;28216;53.362;-6.288;2023-02-21T05:43:49;101380.47;;;10.59;100.00
42587;BME280;28216;53.362;-6.288;2023-02-21T05:46:22;101375.75;;;10.63;100.00
42587;BME280;28216;53.362;-6.288;2023-02-21T05:48:54;101374.00;;;10.54;100.00
42587;BME280;28216;53.362;-6.288;2023-02-21T05:51:32;101366.81;;;10.56;100.00
42587;BME280;28216;53.362;-6.288;2023-02-21T05:54:00;101365.47;;;10.52;100.00
42587;BME280;28216;53.362;-6.288;2023-02-21T05:56:40;101362.84;;;10.52;100.00
42587;BME280;28216;53.362;-6.288;2023-02-21T05:59:15;101367.81;;;10.45;100.00
42587;BME280;28216;53.362;-6.288;2023-02-21T06:02:04;101371.41;;;10.44;100.00
42587;BME280;28216;53.362;-6.288;2023-02-21T06:04:40;101368.13;;;10.42;100.00
42587;BME280;28216;53.362;-6.288;2023-02-21T06:07:21;101363.69;;;10.33;100.00
42587;BME280;28216;53.362;-6.288;2023-02-21T06:10:00;101360.00;;;10.26;100.00
42587;BME280;28216;53.362;-6.288;2023-02-21T06:12:35;101355.88;;;10.23;100.00
42587;BME280;28216;53.362;-6.288;2023-02-21T06:15:21;101358.78;;;10.20;100.00
42587;BME280;28216;53.362;-6.288;2023-02-21T06:18:00;101359.31;;;10.14;100.00
42587;BME280;28216;53.362;-6.288;2023-02-21T06:20:34;101346.09;;;10.06;100.00
42587;BME280;28216;53.362;-6.288;2023-02-21T06:23:08;101356.56;;;10.06;100.00
42587;BME280;28216;53.362;-6.288;2023-02-21T06:25:36;101341.41;;;10.09;100.00
42587;BME280;28216;53.362;-6.288;2023-02-21T06:28:07;101352.13;;;10.16;100.00
42587;BME280;28216;53.362;-6.288;2023-02-21T06:30:44;101350.91;;;10.20;100.00
42587;BME280;28216;53.362;-6.288;2023-02-21T06:33:09;101343.06;;;10.20;100.00
42587;BME280;28216;53.362;-6.288;2023-02-21T06:35:38;101344.41;;;10.24;100.00
42587;BME280;28216;53.362;-6.288;2023-02-21T06:38:05;101342.47;;;10.26;100.00
42587;BME280;28216;53.362;-6.288;2023-02-21T06:40:31;101336.56;;;10.24;100.00
42587;BME280;28216;53.362;-6.288;2023-02-21T06:42:57;101345.66;;;10.20;100.00
42587;BME280;28216;53.362;-6.288;2023-02-21T06:45:22;101343.06;;;10.20;100.00
42587;BME280;28216;53.362;-6.288;2023-02-21T06:50:53;101349.50;;;10.16;100.00
42587;BME280;28216;53.362;-6.288;2023-02-21T06:58:45;101337.66;;;10.22;100.00
42587;BME280;28216;53.362;-6.288;2023-02-21T07:01:11;101350.78;;;10.22;100.00
42587;BME280;28216;53.362;-6.288;2023-02-21T07:03:42;101343.06;;;10.20;100.00
42587;BME280;28216;53.362;-6.288;2023-02-21T07:06:10;101344.28;;;10.26;100.00
42587;BME280;28216;53.362;-6.288;2023-02-21T07:08:36;101341.66;;;10.26;100.00
42587;BME280;28216;53.362;-6.288;2023-02-21T07:11:02;101342.34;;;10.28;100.00
42587;BME280;28216;53.362;-6.288;2023-02-21T07:13:27;101335.00;;;10.31;100.00
42587;BME280;28216;53.362;-6.288;2023-02-21T07:15:53;101336.22;;;10.37;100.00
42587;BME280;28216;53.362;-6.288;2023-02-21T07:18:19;101330.59;;;10.41;100.00
42587;BME280;28216;53.362;-6.288;2023-02-21T07:20:47;101325.06;;;10.44;100.00
42587;BME280;28216;53.362;-6.288;2023-02-21T07:23:14;101320.94;;;10.42;100.00
42587;BME280;28216;53.362;-6.288;2023-02-21T07:25:39;101334.44;;;10.47;100.00
42587;BME280;28216;53.362;-6.288;2023-02-21T07:28:13;101334.56;;;10.45;100.00
42587;BME280;28216;53.362;-6.288;2023-02-21T07:30:41;101325.88;;;10.45;100.00
42587;BME280;28216;53.362;-6.288;2023-02-21T07:33:10;101331.81;;;10.47;100.00
42587;BME280;28216;53.362;-6.288;2023-02-21T07:35:38;101330.31;;;10.44;100.00
42587;BME280;28216;53.362;-6.288;2023-02-21T07:38:24;101328.06;;;10.49;100.00
42587;BME280;28216;53.362;-6.288;2023-02-21T07:40:53;101329.06;;;10.39;100.00
42587;BME280;28216;53.362;-6.288;2023-02-21T07:43:19;101335.69;;;10.33;100.00
42587;BME280;28216;53.362;-6.288;2023-02-21T07:45:44;101338.47;;;10.32;100.00
42587;BME280;28216;53.362;-6.288;2023-02-21T07:48:17;101333.66;;;10.27;100.00
42587;BME280;28216;53.362;-6.288;2023-02-21T07:53:59;101320.94;;;10.32;100.00
42587;BME280;28216;53.362;-6.288;2023-02-21T07:56:24;101326.47;;;10.29;100.00
42587;BME280;28216;53.362;-6.288;2023-02-21T07:58:50;101339.72;;;10.28;100.00
42587;BME280;28216;53.362;-6.288;2023-02-21T08:01:21;101331.16;;;10.26;100.00
42587;BME280;28216;53.362;-6.288;2023-02-21T08:03:47;101322.88;;;10.30;100.00
42587;BME280;28216;53.362;-6.288;2023-02-21T08:06:15;101325.50;;;10.30;100.00
42587;BME280;28216;53.362;-6.288;2023-02-21T08:08:44;101324.25;;;10.34;100.00
42587;BME280;28216;53.362;-6.288;2023-02-21T08:11:10;101318.31;;;10.32;100.00
42587;BME280;28216;53.362;-6.288;2023-02-21T08:13:38;101325.25;;;10.24;100.00
42587;BME280;28216;53.362;-6.288;2023-02-21T08:16:07;101326.31;;;10.31;100.00
42587;BME280;28216;53.362;-6.288;2023-02-21T08:18:32;101321.94;;;10.22;100.00
42587;BME280;28216;53.362;-6.288;2023-02-21T08:20:58;101322.78;;;10.22;100.00
42587;BME280;28216;53.362;-6.288;2023-02-21T08:23:26;101315.44;;;10.26;100.00
42587;BME280;28216;53.362;-6.288;2023-02-21T08:25:52;101314.34;;;10.18;100.00
42587;BME280;28216;53.362;-6.288;2023-02-21T08:28:17;101305.09;;;10.24;100.00
42587;BME280;28216;53.362;-6.288;2023-02-21T08:30:45;101318.22;;;10.24;100.00
42587;BME280;28216;53.362;-6.288;2023-02-21T08:36:38;101298.31;;;10.31;100.00
42587;BME280;28216;53.362;-6.288;2023-02-21T08:39:12;101307.69;;;10.34;100.00
42587;BME280;28216;53.362;-6.288;2023-02-21T08:41:46;101307.25;;;10.38;100.00
42587;BME280;28216;53.362;-6.288;2023-02-21T08:47:27;101305.34;;;10.40;100.00
42587;BME280;28216;53.362;-6.288;2023-02-21T08:49:53;101299.97;;;10.42;100.00
42587;BME280;28216;53.362;-6.288;2023-02-21T08:52:27;101308.06;;;10.48;100.00
42587;BME280;28216;53.362;-6.288;2023-02-21T08:55:11;101303.78;;;10.47;100.00
42587;BME280;28216;53.362;-6.288;2023-02-21T08:58:10;101302.78;;;10.58;100.00
42587;BME280;28216;53.362;-6.288;2023-02-21T09:03:35;101299.81;;;10.71;100.00
42587;BME280;28216;53.362;-6.288;2023-02-21T09:06:03;101289.03;;;10.74;100.00
42587;BME280;28216;53.362;-6.288;2023-02-21T09:08:29;101293.97;;;10.77;100.00
42587;BME280;28216;53.362;-6.288;2023-02-21T09:11:07;101294.50;;;10.80;100.00
42587;BME280;28216;53.362;-6.288;2023-02-21T09:13:36;101289.56;;;10.77;100.00
42587;BME280;28216;53.362;-6.288;2023-02-21T09:16:02;101294.56;;;10.71;100.00
42587;BME280;28216;53.362;-6.288;2023-02-21T09:21:47;101284.31;;;10.77;100.00
42587;BME280;28216;53.362;-6.288;2023-02-21T09:24:22;101291.19;;;10.78;100.00
42587;BME280;28216;53.362;-6.288;2023-02-21T09:27:07;101292.56;;;10.82;100.00
42587;BME280;28216;53.362;-6.288;2023-02-21T09:29:38;101286.25;;;10.75;100.00
42587;BME280;28216;53.362;-6.288;2023-02-21T09:32:05;101286.88;;;10.87;100.00
42587;BME280;28216;53.362;-6.288;2023-02-21T09:34:31;101288.38;;;11.07;100.00
42587;BME280;28216;53.362;-6.288;2023-02-21T09:36:57;101288.94;;;11.29;100.00
42587;BME280;28216;53.362;-6.288;2023-02-21T09:39:23;101282.22;;;11.52;100.00
42587;BME280;28216;53.362;-6.288;2023-02-21T09:41:51;101283.00;;;11.88;100.00
42587;BME280;28216;53.362;-6.288;2023-02-21T09:44:31;101272.34;;;12.16;100.00
42587;BME280;28216;53.362;-6.288;2023-02-21T09:50:56;101255.38;;;12.10;100.00
42587;BME280;28216;53.362;-6.288;2023-02-21T09:53:46;101256.91;;;12.21;100.00
42587;BME280;28216;53.362;-6.288;2023-02-21T09:56:35;101253.63;;;12.19;100.00
42587;BME280;28216;53.362;-6.288;2023-02-21T09:59:09;101259.50;;;12.13;100.00
42587;BME280;28216;53.362;-6.288;2023-02-21T10:07:21;101254.03;;;12.40;100.00
42587;BME280;28216;53.362;-6.288;2023-02-21T10:10:30;101236.66;;;12.55;100.00
42587;BME280;28216;53.362;-6.288;2023-02-21T10:15:54;101238.72;;;12.94;100.00
42587;BME280;28216;53.362;-6.288;2023-02-21T10:18:36;101237.94;;;13.18;100.00
42587;BME280;28216;53.362;-6.288;2023-02-21T10:21:28;101234.66;;;13.32;97.80
42587;BME280;28216;53.362;-6.288;2023-02-21T10:23:56;101227.09;;;13.45;98.85
42587;BME280;28216;53.362;-6.288;2023-02-21T10:26:30;101232.69;;;13.50;97.72
42587;BME280;28216;53.362;-6.288;2023-02-21T10:32:31;101228.88;;;13.61;94.76
42587;BME280;28216;53.362;-6.288;2023-02-21T10:35:20;101221.50;;;13.56;93.91
42587;BME280;28216;53.362;-6.288;2023-02-21T10:37:50;101216.41;;;13.47;95.21
42587;BME280;28216;53.362;-6.288;2023-02-21T10:43:30;101209.00;;;13.26;96.04
42587;BME280;28216;53.362;-6.288;2023-02-21T10:46:04;101199.94;;;13.20;96.18
42587;BME280;28216;53.362;-6.288;2023-02-21T10:48:46;101203.03;;;13.16;96.44
42587;BME280;28216;53.362;-6.288;2023-02-21T10:51:31;101208.13;;;13.09;95.77
42587;BME280;28216;53.362;-6.288;2023-02-21T10:56:48;101196.47;;;13.20;96.73
42587;BME280;28216;53.362;-6.288;2023-02-21T10:59:33;101193.69;;;13.21;94.84
42587;BME280;28216;53.362;-6.288;2023-02-21T11:05:31;101189.41;;;13.45;94.84
42587;BME280;28216;53.362;-6.288;2023-02-21T11:08:08;101189.53;;;13.59;93.51
42587;BME280;28216;53.362;-6.288;2023-02-21T11:10:37;101178.16;;;13.67;94.25
42587;BME280;28216;53.362;-6.288;2023-02-21T11:13:13;101175.53;;;13.59;93.82
42587;BME280;28216;53.362;-6.288;2023-02-21T11:15:40;101182.97;;;13.55;93.77
42587;BME280;28216;53.362;-6.288;2023-02-21T11:18:13;101180.00;;;13.58;93.72
42587;BME280;28216;53.362;-6.288;2023-02-21T11:20:46;101176.22;;;13.53;94.35
42587;BME280;28216;53.362;-6.288;2023-02-21T11:23:25;101180.34;;;13.47;93.19
42587;BME280;28216;53.362;-6.288;2023-02-21T11:26:12;101178.72;;;13.38;93.43
42587;BME280;28216;53.362;-6.288;2023-02-21T11:28:41;101175.88;;;13.56;93.66
42587;BME280;28216;53.362;-6.288;2023-02-21T11:31:15;101170.09;;;13.60;93.12
42587;BME280;28216;53.362;-6.288;2023-02-21T11:33:57;101164.16;;;13.66;93.34
42587;BME280;28216;53.362;-6.288;2023-02-21T11:36:32;101165.78;;;13.76;92.91
42587;BME280;28216;53.362;-6.288;2023-02-21T11:39:05;101154.72;;;13.80;92.58
42587;BME280;28216;53.362;-6.288;2023-02-21T11:44:00;101146.34;;;13.77;92.38
42587;BME280;28216;53.362;-6.288;2023-02-21T11:54:42;101128.50;;;13.40;93.35
42587;BME280;28216;53.362;-6.288;2023-02-21T11:57:32;101114.34;;;13.41;93.19
42587;BME280;28216;53.362;-6.288;2023-02-21T12:06:14;101120.94;;;13.28;93.71
42587;BME280;28216;53.362;-6.288;2023-02-21T12:09:25;101121.44;;;12.99;94.84
42587;BME280;28216;53.362;-6.288;2023-02-21T12:23:24;101100.84;;;13.35;93.98
42587;BME280;28216;53.362;-6.288;2023-02-21T12:26:02;101092.13;;;13.43;93.49
42587;BME280;28216;53.362;-6.288;2023-02-21T12:28:52;101093.28;;;13.41;92.84
42587;BME280;28216;53.362;-6.288;2023-02-21T12:31:32;101090.47;;;13.42;93.45
42587;BME280;28216;53.362;-6.288;2023-02-21T12:45:39;101064.63;;;13.29;92.43
42587;BME280;28216;53.362;-6.288;2023-02-21T12:50:51;101057.88;;;13.43;92.31
42587;BME280;28216;53.362;-6.288;2023-02-21T12:53:23;101052.25;;;13.46;92.05
42587;BME280;28216;53.362;-6.288;2023-02-21T12:55:58;101050.97;;;13.42;92.52
42587;BME280;28216;53.362;-6.288;2023-02-21T13:01:27;101045.84;;;13.49;92.11
42587;BME280;28216;53.362;-6.288;2023-02-21T13:04:34;101042.91;;;13.44;92.08
42587;BME280;28216;53.362;-6.288;2023-02-21T13:07:12;101039.25;;;13.45;92.46
42587;BME280;28216;53.362;-6.288;2023-02-21T13:10:22;101041.72;;;13.46;92.66
42587;BME280;28216;53.362;-6.288;2023-02-21T13:12:59;101039.09;;;13.46;93.17
42587;BME280;28216;53.362;-6.288;2023-02-21T13:15:29;101030.38;;;13.46;92.89
42587;BME280;28216;53.362;-6.288;2023-02-21T13:17:59;101030.88;;;13.41;92.79
42587;BME280;28216;53.362;-6.288;2023-02-21T13:20:29;101022.16;;;13.41;92.83
42587;BME280;28216;53.362;-6.288;2023-02-21T13:22:58;101019.34;;;13.42;92.78
42587;BME280;28216;53.362;-6.288;2023-02-21T13:30:50;101007.34;;;13.31;93.24
42587;BME280;28216;53.362;-6.288;2023-02-21T13:33:40;101005.91;;;13.21;93.21
42587;BME280;28216;53.362;-6.288;2023-02-21T13:36:32;100994.41;;;13.22;93.43
42587;BME280;28216;53.362;-6.288;2023-02-21T13:39:28;100997.81;;;13.30;93.54
42587;BME280;28216;53.362;-6.288;2023-02-21T13:42:08;100984.47;;;13.32;94.02
42587;BME280;28216;53.362;-6.288;2023-02-21T13:44:41;100981.38;;;13.28;94.59
42587;BME280;28216;53.362;-6.288;2023-02-21T13:47:12;100979.59;;;13.21;95.01
42587;BME280;28216;53.362;-6.288;2023-02-21T13:52:26;100977.69;;;13.38;94.86
42587;BME280;28216;53.362;-6.288;2023-02-21T13:57:49;100978.03;;;13.43;95.06
42587;BME280;28216;53.362;-6.288;2023-02-21T14:03:01;100960.94;;;13.39;95.28
42587;BME280;28216;53.362;-6.288;2023-02-21T14:08:34;100959.72;;;13.49;95.55
42587;BME280;28216;53.362;-6.288;2023-02-21T14:13:41;100948.53;;;13.47;95.56
42587;BME280;28216;53.362;-6.288;2023-02-21T14:24:35;100933.56;;;13.48;95.95
42587;BME280;28216;53.362;-6.288;2023-02-21T14:27:38;100938.19;;;13.38;95.87
42587;BME280;28216;53.362;-6.288;2023-02-21T14:30:34;100926.53;;;13.32;95.55
42587;BME280;28216;53.362;-6.288;2023-02-21T14:33:26;100922.09;;;13.32;95.27
42587;BME280;28216;53.362;-6.288;2023-02-21T14:43:14;100916.66;;;13.34;95.63
42587;BME280;28216;53.362;-6.288;2023-02-21T15:26:26;100915.28;;;12.68;98.59
42587;BME280;28216;53.362;-6.288;2023-02-21T15:29:16;100926.78;;;12.67;99.15
42587;BME280;28216;53.362;-6.288;2023-02-21T15:31:49;100924.13;;;12.59;100.00
42587;BME280;28216;53.362;-6.288;2023-02-21T15:34:19;100919.69;;;12.59;100.00
42587;BME280;28216;53.362;-6.288;2023-02-21T15:36:54;100923.81;;;12.54;100.00
42587;BME280;28216;53.362;-6.288;2023-02-21T15:39:35;100919.53;;;12.61;100.00
42587;BME280;28216;53.362;-6.288;2023-02-21T15:42:06;100920.19;;;12.63;100.00
42587;BME280;28216;53.362;-6.288;2023-02-21T15:45:10;100909.19;;;12.67;99.86
42587;BME280;28216;53.362;-6.288;2023-02-21T15:47:43;100917.56;;;12.63;100.00
42587;BME280;28216;53.362;-6.288;2023-02-21T15:52:56;100912.00;;;12.66;100.00
42587;BME280;28216;53.362;-6.288;2023-02-21T15:55:34;100909.16;;;12.76;100.00
42587;BME280;28216;53.362;-6.288;2023-02-21T16:00:39;100901.28;;;12.67;100.00
42587;BME280;28216;53.362;-6.288;2023-02-21T16:06:09;100884.69;;;12.67;100.00
42587;BME280;28216;53.362;-6.288;2023-02-21T16:08:38;100875.44;;;12.79;100.00
42587;BME280;28216;53.362;-6.288;2023-02-21T16:11:04;100874.59;;;12.87;100.00
42587;BME280;28216;53.362;-6.288;2023-02-21T16:13:38;100863.09;;;12.80;100.00
42587;BME280;28216;53.362;-6.288;2023-02-21T16:16:04;100855.16;;;12.88;100.00
42587;BME280;28216;53.362;-6.288;2023-02-21T16:18:31;100848.81;;;12.74;100.00
42587;BME280;28216;53.362;-6.288;2023-02-21T16:21:03;100848.13;;;12.80;100.00
42587;BME280;28216;53.362;-6.288;2023-02-21T16:23:33;100851.94;;;12.78;100.00
42587;BME280;28216;53.362;-6.288;2023-02-21T16:28:35;100819.91;;;12.58;100.00
42587;BME280;28216;53.362;-6.288;2023-02-21T16:31:03;100823.72;;;12.55;100.00
42587;BME280;28216;53.362;-6.288;2023-02-21T16:33:30;100816.97;;;12.53;100.00
42587;BME280;28216;53.362;-6.288;2023-02-21T16:35:57;100814.25;;;12.38;100.00
42587;BME280;28216;53.362;-6.288;2023-02-21T16:38:25;100813.28;;;12.31;100.00
42587;BME280;28216;53.362;-6.288;2023-02-21T16:40:51;100820.53;;;12.21;100.00
42587;BME280;28216;53.362;-6.288;2023-02-21T16:43:19;100823.50;;;12.18;100.00
42587;BME280;28216;53.362;-6.288;2023-02-21T16:45:46;100827.97;;;12.09;100.00
42587;BME280;28216;53.362;-6.288;2023-02-21T16:48:27;100825.19;;;12.02;100.00
42587;BME280;28216;53.362;-6.288;2023-02-21T16:51:01;100815.50;;;12.03;100.00
42587;BME280;28216;53.362;-6.288;2023-02-21T16:53:35;100817.66;;;11.91;100.00
42587;BME280;28216;53.362;-6.288;2023-02-21T16:56:05;100817.66;;;11.91;100.00
42587;BME280;28216;53.362;-6.288;2023-02-21T16:58:39;100824.03;;;11.97;100.00
42587;BME280;28216;53.362;-6.288;2023-02-21T17:01:30;100822.22;;;11.97;100.00
42587;BME280;28216;53.362;-6.288;2023-02-21T17:04:01;100823.88;;;11.90;100.00
42587;BME280;28216;53.362;-6.288;2023-02-21T17:06:30;100822.88;;;11.83;100.00